createdAt,value
2019-05-01T00:00:32.236Z,17.10
2019-05-01T00:03:04.882Z,17.09
2019-05-01T00:05:37.573Z,17.05
2019-05-01T00:08:08.853Z,17.03
2019-05-01T00:10:39.903Z,17.00
2019-05-01T00:13:11.063Z,16.96
2019-05-01T00:15:42.499Z,16.92
2019-05-01T00:18:13.534Z,16.90
2019-05-01T00:20:44.588Z,16.87
2019-05-01T00:23:15.587Z,16.87
2019-05-01T00:25:46.601Z,16.86
2019-05-01T00:28:17.650Z,16.87
2019-05-01T00:30:48.653Z,16.83
2019-05-01T00:33:19.629Z,16.84
2019-05-01T00:35:50.632Z,16.81
2019-05-01T00:38:21.613Z,16.76
2019-05-01T00:40:53.289Z,16.73
2019-05-01T00:43:24.273Z,16.71
2019-05-01T00:45:55.339Z,16.66
2019-05-01T00:48:26.339Z,16.64
2019-05-01T00:50:57.310Z,16.60
2019-05-01T00:53:28.291Z,16.58
2019-05-01T00:56:06.760Z,16.56
2019-05-01T00:58:37.636Z,16.53
2019-05-01T01:01:10.253Z,16.52
2019-05-01T01:03:41.826Z,16.51
2019-05-01T01:06:12.652Z,16.51
2019-05-01T01:08:43.507Z,16.45
2019-05-01T01:11:14.501Z,16.46
2019-05-01T01:13:45.515Z,16.46
2019-05-01T01:16:16.514Z,16.44
2019-05-01T01:18:47.487Z,16.44
2019-05-01T01:21:18.476Z,16.43
2019-05-01T01:23:49.537Z,16.40
2019-05-01T01:26:20.517Z,16.40
2019-05-01T01:28:51.528Z,16.38
2019-05-01T01:31:22.499Z,16.34
2019-05-01T01:33:53.476Z,16.32
2019-05-01T01:36:24.560Z,16.29
2019-05-01T01:38:55.609Z,16.29
2019-05-01T01:41:26.648Z,16.28
2019-05-01T01:43:59.348Z,16.27
2019-05-01T01:46:34.954Z,16.26
2019-05-01T01:49:05.948Z,16.26
2019-05-01T01:51:36.927Z,16.26
2019-05-01T01:54:07.936Z,16.25
2019-05-01T01:56:39.045Z,16.24
2019-05-01T01:59:10.094Z,16.24
2019-05-01T02:01:42.757Z,16.24
2019-05-01T02:04:15.372Z,16.25
2019-05-01T02:06:46.859Z,16.26
2019-05-01T02:09:17.851Z,16.24
2019-05-01T02:11:49.524Z,16.25
2019-05-01T02:14:20.507Z,16.23
2019-05-01T02:16:51.535Z,16.21
2019-05-01T02:19:22.545Z,16.22
2019-05-01T02:21:53.526Z,16.19
2019-05-01T02:24:24.528Z,16.17
2019-05-01T02:26:57.211Z,16.16
2019-05-01T02:29:42.156Z,16.14
2019-05-01T02:32:14.927Z,16.11
2019-05-01T02:34:46.204Z,16.08
2019-05-01T02:37:17.268Z,16.06
2019-05-01T02:39:48.923Z,16.03
2019-05-01T02:42:21.437Z,16.02
2019-05-01T02:44:54.111Z,16.00
2019-05-01T02:47:31.198Z,16.02
2019-05-01T02:50:12.929Z,16.00
2019-05-01T02:52:44.995Z,15.98
2019-05-01T02:55:23.920Z,15.96
2019-05-01T02:57:54.914Z,15.97
2019-05-01T03:00:26.603Z,15.96
2019-05-01T03:02:57.913Z,15.94
2019-05-01T03:05:28.896Z,15.92
2019-05-01T03:07:59.921Z,15.92
2019-05-01T03:10:30.886Z,15.91
2019-05-01T03:13:01.963Z,15.91
2019-05-01T03:15:34.959Z,15.90
2019-05-01T03:18:10.012Z,15.87
2019-05-01T03:20:42.659Z,15.85
2019-05-01T03:23:18.146Z,15.82
2019-05-01T03:25:49.273Z,15.78
2019-05-01T03:28:19.996Z,15.74
2019-05-01T03:30:51.259Z,15.68
2019-05-01T03:33:22.734Z,15.67
2019-05-01T03:35:53.776Z,15.66
2019-05-01T03:38:25.072Z,15.64
2019-05-01T03:40:56.122Z,15.61
2019-05-01T03:43:27.209Z,15.61
2019-05-01T03:45:58.216Z,15.61
2019-05-01T03:48:29.177Z,15.57
2019-05-01T03:51:00.170Z,15.53
2019-05-01T03:53:31.215Z,15.51
2019-05-01T03:56:02.235Z,15.51
2019-05-01T03:58:33.550Z,15.51
2019-05-01T04:01:09.498Z,15.51
2019-05-01T04:03:57.879Z,15.50
2019-05-01T04:06:29.126Z,15.47
2019-05-01T04:09:00.176Z,15.42
2019-05-01T04:11:31.225Z,15.38
2019-05-01T04:14:02.316Z,15.36
2019-05-01T04:16:34.628Z,15.36
2019-05-01T04:19:06.365Z,15.36
2019-05-01T04:21:39.077Z,15.35
2019-05-01T04:24:10.051Z,15.32
2019-05-01T04:26:41.185Z,15.30
2019-05-01T04:29:15.041Z,15.31
2019-05-01T04:31:53.955Z,15.30
2019-05-01T04:34:35.598Z,15.33
2019-05-01T04:37:17.881Z,15.30
2019-05-01T04:39:49.116Z,15.29
2019-05-01T04:42:20.092Z,15.25
2019-05-01T04:44:51.092Z,15.23
2019-05-01T04:47:22.168Z,15.24
2019-05-01T04:49:53.848Z,15.23
2019-05-01T04:52:25.173Z,15.21
2019-05-01T04:54:56.628Z,15.18
2019-05-01T04:57:27.717Z,15.15
2019-05-01T04:59:58.813Z,15.15
2019-05-01T05:02:34.176Z,15.14
2019-05-01T05:05:06.679Z,15.13
2019-05-01T05:07:37.664Z,15.11
2019-05-01T05:10:08.746Z,15.12
2019-05-01T05:12:57.552Z,15.13
2019-05-01T05:15:46.269Z,15.15
2019-05-01T05:18:17.772Z,15.11
2019-05-01T05:20:49.291Z,15.08
2019-05-01T05:23:20.275Z,15.08
2019-05-01T05:25:51.555Z,15.08
2019-05-01T05:28:22.804Z,15.09
2019-05-01T05:30:54.781Z,15.07
2019-05-01T05:33:26.729Z,15.06
2019-05-01T05:35:56.974Z,15.02
2019-05-01T05:38:42.656Z,14.95
2019-05-01T05:41:13.924Z,14.95
2019-05-01T05:43:45.279Z,14.89
2019-05-01T05:46:16.632Z,14.88
2019-05-01T05:48:47.788Z,14.88
2019-05-01T05:51:26.301Z,14.87
2019-05-01T05:53:58.933Z,14.88
2019-05-01T05:56:34.509Z,14.87
2019-05-01T05:59:18.839Z,14.86
2019-05-01T06:01:54.875Z,14.87
2019-05-01T06:04:44.937Z,14.88
2019-05-01T06:07:22.512Z,14.88
2019-05-01T06:09:57.759Z,14.86
2019-05-01T06:12:37.262Z,14.87
2019-05-01T06:15:12.740Z,14.85
2019-05-01T06:17:48.039Z,14.85
2019-05-01T06:20:34.074Z,14.87
2019-05-01T06:23:11.217Z,14.89
2019-05-01T06:25:45.423Z,14.88
2019-05-01T06:28:19.762Z,14.87
2019-05-01T06:30:49.927Z,14.87
2019-05-01T06:33:20.941Z,14.88
2019-05-01T06:35:51.912Z,14.88
2019-05-01T06:38:24.744Z,14.89
2019-05-01T06:40:58.323Z,14.91
2019-05-01T06:43:43.693Z,14.92
2019-05-01T06:46:14.999Z,14.96
2019-05-01T06:48:53.393Z,14.95
2019-05-01T06:51:33.796Z,14.95
2019-05-01T06:54:11.454Z,14.95
2019-05-01T06:56:41.098Z,14.97
2019-05-01T06:59:13.385Z,15.00
2019-05-01T07:01:45.100Z,15.05
2019-05-01T07:04:16.351Z,15.10
2019-05-01T07:06:47.392Z,15.13
2019-05-01T07:09:27.782Z,15.15
2019-05-01T07:11:52.670Z,15.19
2019-05-01T07:14:24.369Z,15.22
2019-05-01T07:16:55.423Z,15.24
2019-05-01T07:19:44.211Z,15.29
2019-05-01T07:22:15.263Z,15.32
2019-05-01T07:24:49.006Z,15.32
2019-05-01T07:27:23.581Z,15.34
2019-05-01T07:29:55.808Z,15.38
2019-05-01T07:32:26.872Z,15.40
2019-05-01T07:35:01.924Z,15.44
2019-05-01T07:37:30.558Z,15.49
2019-05-01T07:40:01.637Z,15.56
2019-05-01T07:42:35.625Z,15.65
2019-05-01T07:45:20.228Z,15.73
2019-05-01T07:47:53.434Z,15.81
2019-05-01T07:50:31.592Z,15.83
2019-05-01T07:52:57.352Z,15.87
2019-05-01T07:55:37.680Z,15.91
2019-05-01T07:58:15.908Z,15.94
2019-05-01T08:00:51.488Z,16.01
2019-05-01T08:03:22.500Z,16.09
2019-05-01T08:05:53.654Z,16.18
2019-05-01T08:08:24.640Z,16.23
2019-05-01T08:10:59.616Z,16.30
2019-05-01T08:13:30.704Z,16.38
2019-05-01T08:16:06.974Z,16.47
2019-05-01T08:18:39.120Z,16.63
2019-05-01T08:21:27.665Z,16.73
2019-05-01T08:23:58.683Z,16.75
2019-05-01T08:26:29.651Z,16.72
2019-05-01T08:29:18.397Z,16.73
2019-05-01T08:32:03.440Z,16.79
2019-05-01T08:34:47.958Z,16.82
2019-05-01T08:37:08.288Z,16.85
2019-05-01T08:39:39.805Z,16.89
2019-05-01T08:42:11.952Z,16.90
2019-05-01T08:45:05.066Z,16.93
2019-05-01T08:47:39.582Z,16.94
2019-05-01T08:50:24.775Z,16.89
2019-05-01T08:52:53.744Z,16.86
2019-05-01T08:55:24.741Z,16.85
2019-05-01T08:57:55.727Z,16.87
2019-05-01T09:00:30.854Z,16.87
2019-05-01T09:03:08.106Z,16.91
2019-05-01T09:05:33.950Z,17.00
2019-05-01T09:08:05.151Z,17.13
2019-05-01T09:10:36.124Z,17.25
2019-05-01T09:13:07.141Z,17.33
2019-05-01T09:15:38.758Z,17.36
2019-05-01T09:18:09.761Z,17.41
2019-05-01T09:20:42.018Z,17.49
2019-05-01T09:23:14.393Z,17.58
2019-05-01T09:25:59.339Z,17.67
2019-05-01T09:28:36.039Z,17.79
2019-05-01T09:31:06.308Z,17.86
2019-05-01T09:33:37.294Z,18.01
2019-05-01T09:36:08.345Z,18.18
2019-05-01T09:38:39.324Z,18.31
2019-05-01T09:41:10.336Z,18.43
2019-05-01T09:43:41.293Z,18.55
2019-05-01T09:46:12.287Z,18.62
2019-05-01T09:48:43.842Z,18.67
2019-05-01T09:51:16.479Z,18.69
2019-05-01T09:53:49.169Z,18.71
2019-05-01T09:56:24.482Z,18.71
2019-05-01T09:58:55.456Z,18.74
2019-05-01T10:01:31.552Z,18.78
2019-05-01T10:03:59.196Z,18.85
2019-05-01T10:06:30.342Z,18.88
2019-05-01T10:09:01.466Z,18.89
2019-05-01T10:11:35.948Z,18.92
2019-05-01T10:14:06.204Z,18.95
2019-05-01T10:16:37.203Z,19.00
2019-05-01T10:19:08.170Z,19.06
2019-05-01T10:21:39.173Z,19.12
2019-05-01T10:24:10.150Z,19.19
2019-05-01T10:26:42.769Z,19.23
2019-05-01T10:29:27.614Z,19.28
2019-05-01T10:32:09.288Z,19.29
2019-05-01T10:34:57.020Z,19.28
2019-05-01T10:37:33.164Z,19.30
2019-05-01T10:40:00.897Z,19.30
2019-05-01T10:42:32.045Z,19.34
2019-05-01T10:45:03.053Z,19.39
2019-05-01T10:47:34.292Z,19.43
2019-05-01T10:50:05.612Z,19.50
2019-05-01T10:52:36.579Z,19.57
2019-05-01T10:55:08.239Z,19.61
2019-05-01T10:57:40.662Z,19.65
2019-05-01T11:00:12.164Z,19.71
2019-05-01T11:02:43.159Z,19.78
2019-05-01T11:05:14.194Z,19.82
2019-05-01T11:07:45.179Z,19.87
2019-05-01T11:10:16.300Z,19.89
2019-05-01T11:12:47.297Z,19.92
2019-05-01T11:15:18.555Z,19.95
2019-05-01T11:17:49.533Z,19.99
2019-05-01T11:20:20.513Z,20.03
2019-05-01T11:22:51.481Z,20.08
2019-05-01T11:25:22.943Z,20.13
2019-05-01T11:27:53.922Z,20.19
2019-05-01T11:30:24.974Z,20.24
2019-05-01T11:33:09.536Z,20.28
2019-05-01T11:36:08.986Z,20.36
2019-05-01T11:38:44.254Z,20.40
2019-05-01T11:41:22.754Z,20.46
2019-05-01T11:43:53.711Z,20.49
2019-05-01T11:46:24.705Z,20.52
2019-05-01T11:48:55.681Z,20.56
2019-05-01T11:51:26.701Z,20.62
2019-05-01T11:53:57.667Z,20.73
2019-05-01T11:56:28.669Z,20.82
2019-05-01T11:58:59.672Z,20.93
2019-05-01T12:01:30.648Z,21.02
2019-05-01T12:04:01.625Z,21.14
2019-05-01T12:06:32.611Z,21.27
2019-05-01T12:09:05.236Z,21.36
2019-05-01T12:11:37.862Z,21.42
2019-05-01T12:14:08.857Z,21.49
2019-05-01T12:16:57.649Z,21.54
2019-05-01T12:19:32.566Z,21.64
2019-05-01T12:22:03.581Z,21.67
2019-05-01T12:24:34.697Z,21.71
2019-05-01T12:27:05.675Z,21.77
2019-05-01T12:29:36.646Z,21.84
2019-05-01T12:32:07.670Z,21.89
2019-05-01T12:34:38.688Z,21.96
2019-05-01T12:37:27.411Z,21.97
2019-05-01T12:39:58.419Z,21.97
2019-05-01T12:42:31.044Z,21.98
2019-05-01T12:45:02.038Z,22.01
2019-05-01T12:47:38.108Z,22.05
2019-05-01T12:50:10.965Z,22.11
2019-05-01T12:52:44.792Z,22.19
2019-05-01T12:55:30.492Z,22.27
2019-05-01T12:58:02.390Z,22.34
2019-05-01T13:00:52.736Z,22.42
2019-05-01T13:03:23.814Z,22.47
2019-05-01T13:05:54.794Z,22.52
2019-05-01T13:08:25.808Z,22.59
2019-05-01T13:10:56.899Z,22.64
2019-05-01T13:13:27.902Z,22.65
2019-05-01T13:15:58.903Z,22.63
2019-05-01T13:18:29.887Z,22.62
2019-05-01T13:21:00.884Z,22.60
2019-05-01T13:23:31.895Z,22.60
2019-05-01T13:26:04.534Z,22.61
2019-05-01T13:28:37.741Z,22.64
2019-05-01T13:31:25.368Z,22.69
2019-05-01T13:33:56.412Z,22.72
2019-05-01T13:36:27.391Z,22.71
2019-05-01T13:38:58.400Z,22.70
2019-05-01T13:41:29.392Z,22.73
2019-05-01T13:44:00.453Z,22.77
2019-05-01T13:46:31.419Z,22.80
2019-05-01T13:49:02.393Z,22.85
2019-05-01T13:51:33.731Z,22.89
2019-05-01T13:54:06.578Z,22.92
2019-05-01T13:56:37.561Z,22.95
2019-05-01T13:59:10.452Z,22.94
2019-05-01T14:01:41.430Z,22.93
2019-05-01T14:04:13.477Z,22.94
2019-05-01T14:06:44.445Z,22.97
2019-05-01T14:09:17.226Z,23.02
2019-05-01T14:11:48.204Z,23.04
2019-05-01T14:14:19.216Z,23.04
2019-05-01T14:16:50.224Z,23.05
2019-05-01T14:27:43.032Z,20.18
2019-05-01T14:30:14.383Z,20.32
2019-05-01T14:32:45.355Z,20.77
2019-05-01T14:35:16.695Z,21.18
2019-05-01T14:37:47.672Z,21.52
2019-05-01T14:40:18.822Z,21.80
2019-05-01T14:42:49.811Z,22.01
2019-05-01T14:45:21.087Z,22.21
2019-05-01T14:47:52.071Z,22.38
2019-05-01T14:50:23.076Z,22.46
2019-05-01T14:52:54.075Z,22.49
2019-05-01T14:55:25.076Z,22.50
2019-05-01T14:57:56.092Z,22.55
2019-05-01T15:00:27.144Z,22.57
2019-05-01T15:02:58.115Z,22.57
2019-05-01T15:05:29.114Z,22.52
2019-05-01T15:08:00.104Z,22.48
2019-05-01T15:10:31.103Z,22.46
2019-05-01T15:13:09.534Z,22.44
2019-05-01T15:15:44.860Z,22.44
2019-05-01T15:18:20.746Z,22.42
2019-05-01T15:20:51.774Z,22.38
2019-05-01T15:23:22.798Z,22.35
2019-05-01T15:25:53.750Z,22.31
2019-05-01T15:28:24.770Z,22.24
2019-05-01T15:30:55.741Z,22.20
2019-05-01T15:33:26.754Z,22.17
2019-05-01T15:35:57.755Z,22.14
2019-05-01T15:38:28.730Z,22.11
2019-05-01T15:40:59.502Z,22.09
2019-05-01T15:43:32.132Z,22.08
2019-05-01T15:46:03.115Z,22.05
2019-05-01T15:48:34.129Z,22.05
2019-05-01T15:51:05.180Z,22.06
2019-05-01T15:53:36.185Z,22.08
2019-05-01T15:56:07.156Z,22.08
2019-05-01T15:58:38.146Z,22.08
2019-05-01T16:01:09.142Z,22.07
2019-05-01T16:03:40.147Z,22.05
2019-05-01T16:06:11.150Z,22.02
2019-05-01T16:08:42.143Z,22.01
2019-05-01T16:11:15.062Z,22.01
2019-05-01T16:13:46.041Z,22.00
2019-05-01T16:16:17.038Z,21.98
2019-05-01T16:18:48.050Z,21.96
2019-05-01T16:21:19.024Z,21.90
2019-05-01T16:23:50.033Z,21.85
2019-05-01T16:26:21.012Z,21.79
2019-05-01T16:28:52.017Z,21.76
2019-05-01T16:31:22.990Z,21.72
2019-05-01T16:33:53.989Z,21.69
2019-05-01T16:36:24.970Z,21.65
2019-05-01T16:39:06.592Z,21.64
2019-05-01T16:41:37.571Z,21.60
2019-05-01T16:44:08.543Z,21.58
2019-05-01T16:46:39.619Z,21.56
2019-05-01T16:49:10.595Z,21.56
2019-05-01T16:51:41.596Z,21.54
2019-05-01T16:54:12.647Z,21.51
2019-05-01T16:56:43.633Z,21.50
2019-05-01T16:59:14.622Z,21.48
2019-05-01T17:01:47.240Z,21.46
2019-05-01T17:04:26.840Z,21.44
2019-05-01T17:06:59.455Z,21.42
2019-05-01T17:09:48.358Z,21.38
2019-05-01T17:12:20.979Z,21.36
2019-05-01T17:14:51.996Z,21.32
2019-05-01T17:17:24.218Z,21.29
2019-05-01T17:19:55.198Z,21.25
2019-05-01T17:22:26.259Z,21.23
2019-05-01T17:24:57.242Z,21.20
2019-05-01T17:27:28.240Z,21.19
2019-05-01T17:29:59.233Z,21.17
2019-05-01T17:32:30.270Z,21.12
2019-05-01T17:35:01.810Z,21.07
2019-05-01T17:37:33.941Z,21.04
2019-05-01T17:40:07.950Z,20.99
2019-05-01T17:42:38.985Z,20.96
2019-05-01T17:45:10.169Z,20.91
2019-05-01T17:47:41.137Z,20.87
2019-05-01T17:50:16.487Z,20.85
2019-05-01T17:52:45.058Z,20.83
2019-05-01T17:55:16.112Z,20.79
2019-05-01T17:57:47.105Z,20.76
2019-05-01T18:00:36.060Z,20.71
2019-05-01T18:03:25.225Z,20.69
2019-05-01T18:06:04.869Z,20.62
2019-05-01T18:08:35.955Z,20.57
2019-05-01T18:11:09.443Z,20.52
2019-05-01T18:13:39.624Z,20.48
2019-05-01T18:16:10.608Z,20.45
2019-05-01T18:18:41.643Z,20.41
2019-05-01T18:21:13.064Z,20.38
2019-05-01T18:23:53.102Z,20.33
2019-05-01T18:26:29.473Z,20.30
2019-05-01T18:29:05.795Z,20.24
2019-05-01T18:31:37.907Z,20.19
2019-05-01T18:34:08.864Z,20.13
2019-05-01T18:36:54.895Z,20.08
2019-05-01T18:39:30.087Z,20.05
2019-05-01T18:42:08.184Z,20.03
2019-05-01T18:44:42.516Z,20.00
2019-05-01T18:47:12.014Z,19.96
2019-05-01T18:49:43.050Z,19.94
2019-05-01T18:52:14.196Z,19.91
2019-05-01T18:54:45.180Z,19.86
2019-05-01T18:57:16.186Z,19.84
2019-05-01T18:59:47.193Z,19.81
2019-05-01T19:02:20.485Z,19.77
2019-05-01T19:04:50.860Z,19.75
2019-05-01T19:07:21.843Z,19.70
2019-05-01T19:09:53.590Z,19.61
2019-05-01T19:12:24.565Z,19.58
2019-05-01T19:14:55.561Z,19.53
2019-05-01T19:17:26.580Z,19.48
2019-05-01T19:19:57.547Z,19.43
2019-05-01T19:22:28.555Z,19.35
2019-05-01T19:24:59.586Z,19.30
2019-05-01T19:27:30.617Z,19.23
2019-05-01T19:30:01.626Z,19.15
2019-05-01T19:32:34.045Z,19.09
2019-05-01T19:35:08.707Z,19.04
2019-05-01T19:37:39.680Z,19.00
2019-05-01T19:40:10.954Z,18.95
2019-05-01T19:42:41.932Z,18.91
2019-05-01T19:45:13.398Z,18.86
2019-05-01T19:47:44.371Z,18.82
2019-05-01T19:50:16.329Z,18.76
2019-05-01T19:52:47.384Z,18.66
2019-05-01T19:55:18.425Z,18.60
2019-05-01T19:57:49.447Z,18.54
2019-05-01T20:00:41.792Z,18.51
2019-05-01T20:03:12.784Z,18.46
2019-05-01T20:05:43.748Z,18.41
2019-05-01T20:08:14.776Z,18.39
2019-05-01T20:11:05.100Z,18.36
2019-05-01T20:13:36.139Z,18.35
2019-05-01T20:16:08.347Z,18.30
2019-05-01T20:18:39.351Z,18.29
2019-05-01T20:21:10.330Z,18.27
2019-05-01T20:23:41.342Z,18.25
2019-05-01T20:26:12.300Z,18.20
2019-05-01T20:28:43.287Z,18.14
2019-05-01T20:31:14.289Z,18.10
2019-05-01T20:33:45.283Z,18.07
2019-05-01T20:36:16.267Z,18.02
2019-05-01T20:38:47.242Z,17.99
2019-05-01T20:41:18.239Z,17.95
2019-05-01T20:43:49.224Z,17.90
2019-05-01T20:46:21.494Z,17.86
2019-05-01T20:48:55.996Z,17.84
2019-05-01T20:51:26.339Z,17.81
2019-05-01T20:53:57.404Z,17.77
2019-05-01T20:56:32.815Z,17.74
2019-05-01T20:59:04.954Z,17.71
2019-05-01T21:01:36.080Z,17.69
2019-05-01T21:04:24.275Z,17.67
2019-05-01T21:07:15.604Z,17.66
2019-05-01T21:09:56.898Z,17.61
2019-05-01T21:12:21.510Z,17.56
2019-05-01T21:14:52.480Z,17.53
2019-05-01T21:17:23.544Z,17.51
2019-05-01T21:19:55.387Z,17.50
2019-05-01T21:22:26.363Z,17.47
2019-05-01T21:24:57.368Z,17.45
2019-05-01T21:27:28.349Z,17.43
2019-05-01T21:29:59.316Z,17.42
2019-05-01T21:32:30.326Z,17.39
2019-05-01T21:35:01.563Z,17.36
2019-05-01T21:37:32.540Z,17.34
2019-05-01T21:40:05.651Z,17.31
2019-05-01T21:42:37.333Z,17.29
2019-05-01T21:45:08.444Z,17.27
2019-05-01T21:47:39.456Z,17.24
2019-05-01T21:50:10.501Z,17.22
2019-05-01T21:52:43.618Z,17.20
2019-05-01T21:55:14.240Z,17.16
2019-05-01T21:57:49.227Z,17.13
2019-05-01T22:00:20.096Z,17.10
2019-05-01T22:02:51.113Z,17.06
2019-05-01T22:05:22.088Z,17.04
2019-05-01T22:07:53.532Z,17.00
2019-05-01T22:10:26.508Z,16.97
2019-05-01T22:12:57.183Z,16.94
2019-05-01T22:15:42.089Z,16.90
2019-05-01T22:18:22.052Z,16.87
2019-05-01T22:21:12.262Z,16.82
2019-05-01T22:24:01.207Z,16.80
2019-05-01T22:26:33.832Z,16.75
2019-05-01T22:29:06.449Z,16.70
2019-05-01T22:31:47.821Z,16.68
2019-05-01T22:34:20.459Z,16.65
2019-05-01T22:36:51.439Z,16.60
2019-05-01T22:39:24.050Z,16.56
2019-05-01T22:41:55.033Z,16.55
2019-05-01T22:44:26.028Z,16.53
2019-05-01T22:46:57.008Z,16.51
2019-05-01T22:49:27.983Z,16.48
2019-05-01T22:51:58.962Z,16.45
2019-05-01T22:54:29.956Z,16.43
2019-05-01T22:57:01.239Z,16.40
2019-05-01T22:59:32.221Z,16.40
2019-05-01T23:02:24.324Z,16.36
2019-05-01T23:04:55.261Z,16.33
2019-05-01T23:07:26.613Z,16.28
2019-05-01T23:09:59.377Z,16.26
2019-05-01T23:12:30.290Z,16.24
2019-05-01T23:15:01.339Z,16.22
2019-05-01T23:17:34.941Z,16.19
2019-05-01T23:20:08.999Z,16.16
2019-05-01T23:22:39.966Z,16.13
2019-05-01T23:25:11.027Z,16.10
2019-05-01T23:27:42.078Z,16.09
2019-05-01T23:30:16.232Z,16.07
2019-05-01T23:32:47.204Z,16.05
2019-05-01T23:35:18.185Z,16.02
2019-05-01T23:37:49.198Z,16.03
2019-05-01T23:40:20.842Z,16.01
2019-05-01T23:42:53.685Z,15.99
2019-05-01T23:45:24.501Z,15.98
2019-05-01T23:47:55.541Z,15.96
2019-05-01T23:50:26.521Z,15.94
2019-05-01T23:52:57.499Z,15.92
2019-05-01T23:55:28.474Z,15.91
2019-05-01T23:57:59.460Z,15.90
